Ceres, Washington
Current Conditions -  °F | °C
As of 1:15 AM on Wednesday 22 Oct 2014 (Local Time) from KCLS Reporting Station
Drizzle Drizzle  
Wind Chill: 55°   Ceiling: 3000
Heat Index: 55°   Visibility: 9mi
Dew Point: 52°   Wind: 16mph
Humidity: 88%   Direction: 170°S
Pressure: 29.73"   Gusts: 23mph
Location:  46.6561°N, 122.993°W
Report Text: KCLS 220815Z AUTO 17014G20KT 140V200 9SM -DZ OVC030 13/11 A2973 RMK AO2
Loading
Personal Weather Stations






























Interactive Weather Map
Tropical Storm Tracking
New forecast layout! Learn more

10-Day Weather Forecast

Advertisements
Track Severe Weather on mobile